Arcata, CA (95519)

6:37 AM PDT on August 28, 2015 (GMT -0700)
APRSWXNET | | Change Station
CLOSE
Current Station
Personal Weather Station
Location: Arcata, CA
Elevation: 183 ft
Nearby Weather Stations

Elev 183 ft 40.88 °N, 124.08 °W | Updated 21 minutes ago

Partly Cloudy
Partly Cloudy
62.0 °F
Feels Like 62.0 °F
N
1.0
Wind Variable Wind from ESE
Gusts 3.0 mph

Today
High -- | Low -- °F
--% Chance of Precip.
Yesterday
High -- | Low -- °F
Precip. -- in
6:39 AM 7:55 PM
Waxing Gibbous, 98% visible
Pressure 29.98 in
Visibility 10.0 miles
Clouds Few 11000 ft
Dew Point 57.0 °F
Humidity 85%
Rainfall in
Snow Depth Not available.
UV 0 out of 12
Pollen 7.20 out of 12
Air Quality Not available.
Flu Activity Not available.
METAR KACV 281253Z AUTO 27008KT 10SM FEW110 17/12 A2997 RMK AO2 SLP151 T01670122
Pressure 29.98 in
Visibility 10.0 miles
Clouds Few 11000 ft
Dew Point 57.0 °F
Humidity 85%
Rainfall in
Snow Depth Not available.
UV 0 out of 12
Pollen 7.20 out of 12
Air Quality Not available.
Flu Activity Not available.
METAR KACV 281253Z AUTO 27008KT 10SM FEW110 17/12 A2997 RMK AO2 SLP151 T01670122

10-Day Weather Forecast

×

Almanac

Astronomy

Aug. 28, 2015 Rise Set
Actual Time
Civil Twilight
Nautical Twilight
Astronomical Twilight
Moon
Length of Visible Light
Length of Day
Tomorrow will be .
, % of the Moon is Illuminated

Today's Extremes

State Highs State Lows

Community

WunderPhotos

Upload Photos

1,850,376 photos uploaded!

WunderBlogs® & News

Nearby

Air Quality

  Air Quality AQ Index Pollutant
Not available.

Snow Depth

Station Depth Elevation

Earthquake Activity

City Distance Mag. Time & Date
Minimum magnitude displayed is 2.5.

Coastal Water Temperatures

Place Temperature

Stations

Nearby Weather Stations

Station Location Temp. Windchill Dew Point Humidity Wind Precip. Elev Updated Type